Detall de PIREP

Printer-friendly versionPDF version

[2012/12/01 15:59:00]
Flight IATA:CT1001
Pilot Number:012
Company ICAO:CAT
Aircraft Type:BE20/A
PAX:6
Departing Airport: LERS
Destination Airport: LEMH
Alternate Airport:LEPA
Online: VATSIM
Route:BCN H70 SARGO
Flight Level:F150
No Slew and time accel
No pause
Crash detect
Detect pilot in Cockpit between each 30 and 45 minutes
15:59 Zero fuel Weight: 9633 Lbs, Fuel Weight: 1611 Lbs
15:59 VATSIM:LERS 011530Z 28011KT CAVOK 09/M05 Q1010
15:59 VATSIM:LEMH 011530Z 02019KT 340V040 9999 FEW028 10/04 Q1008
15:59 VOICE CATALONIAN / IFR CLASSIC
16:00 Parking Brakes off
16:06 Take-off
16:06 Take off Weight: 11226 Lbs
16:06 Wind: 283º @ 011 Knots Heading: 248º
16:06 POS N41º 08´ 49´´ E001º 09´ 58´´
16:06 Gear Up: 125 Knots
16:16 TOC
16:16 Fuel Weight: 1462 Lb
16:21 Wind:029º@010 Knots Heading: 064º Ground Speed: 249 Knots Altitude 14911 ft
16:36 Wind:094º@007 Knots Heading: 117º Ground Speed: 256 Knots Altitude 14917 ft
16:51 Wind:215º@002 Knots Heading: 131º Ground Speed: 262 Knots Altitude 14878 ft
16:54 TOD
16:54 Fuel Weight: 1000 Lb
17:06 Wind:031º@016 Knots Heading: 121º Ground Speed: 233 Knots Altitude 3001 ft
17:08 Flaps:1 at 161 Knots
17:10 Gear Down: 120 Knots
17:10 Flaps:2 at 120 Knots
17:13 TouchDown:Rate -335 ft/min Speed: 104 Knots
17:14 VATSIM:LEMH 011700Z 01013KT 9999 FEW029 09/03 Q1009
17:14 Land
17:14 Wind:025º@016 Knots
17:14 Heading: 013º
17:14 Flight Duration: 01:08
17:14 Landing Weight: 10482 Lbs
17:14 POS N39º 51´ 36´´ E004º 13´ 05´´
17:16 Parking brakes on
17:16 Block to Block Duration: 01:16
17:16 Final Fuel: 844 Lbls
17:16 Spent Fuel: 767 Lbls
17:16 Flight Length: 253 NM
17:16 TOD Land Length: 65 NM

Exportar CSV

Powered by Drupal - Modified by Danger4k